sensor_id;sensor_type;location;lat;lon;timestamp;pressure;altitude;pressure_sealevel;temperature;humidity
3844;BME280;1937;51.444;6.484;2022-08-19T00:02:04;72172.31;;;19.04;100.00
3844;BME280;1937;51.444;6.484;2022-08-19T00:04:35;72218.19;;;19.12;100.00
3844;BME280;1937;51.444;6.484;2022-08-19T00:07:05;72204.16;;;19.07;100.00
3844;BME280;1937;51.444;6.484;2022-08-19T00:09:34;72131.13;;;18.96;100.00
3844;BME280;1937;51.444;6.484;2022-08-19T00:12:03;72152.03;;;18.96;100.00
3844;BME280;1937;51.444;6.484;2022-08-19T00:14:32;72207.53;;;19.05;100.00
3844;BME280;1937;51.444;6.484;2022-08-19T00:17:01;72152.19;;;19.03;100.00
3844;BME280;1937;51.444;6.484;2022-08-19T00:19:31;72144.53;;;19.09;100.00
3844;BME280;1937;51.444;6.484;2022-08-19T00:21:59;72124.47;;;18.89;100.00
3844;BME280;1937;51.444;6.484;2022-08-19T00:24:29;72249.00;;;19.01;100.00
3844;BME280;1937;51.444;6.484;2022-08-19T00:26:58;72264.38;;;19.05;100.00
3844;BME280;1937;51.444;6.484;2022-08-19T00:29:31;72273.81;;;19.10;100.00
3844;BME280;1937;51.444;6.484;2022-08-19T00:31:59;72253.94;;;19.05;100.00
3844;BME280;1937;51.444;6.484;2022-08-19T00:34:28;72229.00;;;18.97;100.00
3844;BME280;1937;51.444;6.484;2022-08-19T00:36:56;72198.50;;;18.85;100.00
3844;BME280;1937;51.444;6.484;2022-08-19T00:39:25;72199.59;;;18.88;100.00
3844;BME280;1937;51.444;6.484;2022-08-19T00:41:55;72141.31;;;18.72;100.00
3844;BME280;1937;51.444;6.484;2022-08-19T00:44:27;72243.59;;;18.75;100.00
3844;BME280;1937;51.444;6.484;2022-08-19T00:46:59;72245.34;;;18.78;100.00
3844;BME280;1937;51.444;6.484;2022-08-19T00:49:30;72200.13;;;18.71;100.00
3844;BME280;1937;51.444;6.484;2022-08-19T00:52:03;72228.84;;;18.71;100.00
3844;BME280;1937;51.444;6.484;2022-08-19T00:54:33;72200.25;;;18.69;100.00
3844;BME280;1937;51.444;6.484;2022-08-19T00:57:04;72234.19;;;18.89;100.00
3844;BME280;1937;51.444;6.484;2022-08-19T00:59:36;72044.50;;;18.66;100.00
3844;BME280;1937;51.444;6.484;2022-08-19T01:02:09;72103.19;;;18.67;100.00
3844;BME280;1937;51.444;6.484;2022-08-19T01:04:37;72145.66;;;18.57;100.00
3844;BME280;1937;51.444;6.484;2022-08-19T01:07:06;72237.22;;;18.44;100.00
3844;BME280;1937;51.444;6.484;2022-08-19T01:09:35;72235.91;;;18.34;100.00
3844;BME280;1937;51.444;6.484;2022-08-19T01:12:04;72152.63;;;18.02;100.00
3844;BME280;1937;51.444;6.484;2022-08-19T01:14:33;72229.53;;;18.04;100.00
3844;BME280;1937;51.444;6.484;2022-08-19T01:17:02;72239.16;;;17.96;100.00
3844;BME280;1937;51.444;6.484;2022-08-19T01:19:36;72299.88;;;17.95;100.00
3844;BME280;1937;51.444;6.484;2022-08-19T01:22:09;72376.53;;;17.89;100.00
3844;BME280;1937;51.444;6.484;2022-08-19T01:24:42;72589.63;;;17.91;100.00
3844;BME280;1937;51.444;6.484;2022-08-19T01:27:11;72674.50;;;18.00;100.00
3844;BME280;1937;51.444;6.484;2022-08-19T01:29:41;72786.72;;;18.22;100.00
3844;BME280;1937;51.444;6.484;2022-08-19T01:32:12;72722.09;;;18.12;100.00
3844;BME280;1937;51.444;6.484;2022-08-19T01:34:42;72745.97;;;18.16;100.00
3844;BME280;1937;51.444;6.484;2022-08-19T01:37:15;72716.50;;;17.96;100.00
3844;BME280;1937;51.444;6.484;2022-08-19T01:39:45;72835.63;;;18.00;100.00
3844;BME280;1937;51.444;6.484;2022-08-19T01:42:14;72929.69;;;18.09;100.00
3844;BME280;1937;51.444;6.484;2022-08-19T01:44:42;73004.31;;;18.16;100.00
3844;BME280;1937;51.444;6.484;2022-08-19T01:47:10;72909.63;;;18.18;100.00
3844;BME280;1937;51.444;6.484;2022-08-19T01:49:39;72937.94;;;18.13;100.00
3844;BME280;1937;51.444;6.484;2022-08-19T01:52:08;72994.72;;;18.13;100.00
3844;BME280;1937;51.444;6.484;2022-08-19T01:54:37;73033.81;;;18.25;100.00
3844;BME280;1937;51.444;6.484;2022-08-19T01:57:11;72933.34;;;18.37;100.00
3844;BME280;1937;51.444;6.484;2022-08-19T01:59:42;72766.28;;;18.37;100.00
3844;BME280;1937;51.444;6.484;2022-08-19T02:02:11;72686.44;;;18.19;100.00
3844;BME280;1937;51.444;6.484;2022-08-19T02:04:40;72808.16;;;18.46;100.00
3844;BME280;1937;51.444;6.484;2022-08-19T02:07:08;72467.94;;;18.38;100.00
3844;BME280;1937;51.444;6.484;2022-08-19T02:09:36;72136.03;;;18.17;100.00
3844;BME280;1937;51.444;6.484;2022-08-19T02:12:07;72090.75;;;17.92;100.00
3844;BME280;1937;51.444;6.484;2022-08-19T02:14:36;72248.25;;;17.87;100.00
3844;BME280;1937;51.444;6.484;2022-08-19T02:17:05;72315.75;;;17.72;100.00
3844;BME280;1937;51.444;6.484;2022-08-19T02:19:34;72415.84;;;17.66;100.00
3844;BME280;1937;51.444;6.484;2022-08-19T02:22:02;72658.94;;;17.88;100.00
3844;BME280;1937;51.444;6.484;2022-08-19T02:24:31;72725.31;;;18.02;100.00
3844;BME280;1937;51.444;6.484;2022-08-19T02:26:59;72670.28;;;18.06;100.00
3844;BME280;1937;51.444;6.484;2022-08-19T02:29:29;72561.47;;;17.83;100.00
3844;BME280;1937;51.444;6.484;2022-08-19T02:31:57;72766.19;;;18.05;100.00
3844;BME280;1937;51.444;6.484;2022-08-19T02:34:26;72516.50;;;17.82;100.00
3844;BME280;1937;51.444;6.484;2022-08-19T02:36:55;72559.22;;;17.87;100.00
3844;BME280;1937;51.444;6.484;2022-08-19T02:39:23;72356.72;;;17.63;100.00
3844;BME280;1937;51.444;6.484;2022-08-19T02:41:53;72532.25;;;17.80;100.00
3844;BME280;1937;51.444;6.484;2022-08-19T02:44:22;72452.44;;;17.75;100.00
3844;BME280;1937;51.444;6.484;2022-08-19T02:46:51;72579.47;;;17.66;100.00
3844;BME280;1937;51.444;6.484;2022-08-19T02:49:20;72650.59;;;17.64;100.00
3844;BME280;1937;51.444;6.484;2022-08-19T02:51:48;72710.16;;;17.59;100.00
3844;BME280;1937;51.444;6.484;2022-08-19T02:54:17;72926.53;;;17.59;100.00
3844;BME280;1937;51.444;6.484;2022-08-19T02:56:45;73084.97;;;17.72;100.00
3844;BME280;1937;51.444;6.484;2022-08-19T02:59:14;73131.06;;;17.75;100.00
3844;BME280;1937;51.444;6.484;2022-08-19T03:01:44;73219.66;;;17.90;100.00
3844;BME280;1937;51.444;6.484;2022-08-19T03:04:15;73130.53;;;17.85;100.00
3844;BME280;1937;51.444;6.484;2022-08-19T03:06:46;73127.13;;;17.76;100.00
3844;BME280;1937;51.444;6.484;2022-08-19T03:09:16;73177.28;;;17.64;100.00
3844;BME280;1937;51.444;6.484;2022-08-19T03:11:45;73165.88;;;17.44;100.00
3844;BME280;1937;51.444;6.484;2022-08-19T03:14:14;73560.63;;;17.49;100.00
3844;BME280;1937;51.444;6.484;2022-08-19T03:16:46;74164.72;;;17.74;100.00
3844;BME280;1937;51.444;6.484;2022-08-19T03:19:18;74215.00;;;17.72;100.00
3844;BME280;1937;51.444;6.484;2022-08-19T03:21:48;74428.78;;;17.97;100.00
3844;BME280;1937;51.444;6.484;2022-08-19T03:24:17;74246.16;;;18.14;100.00
3844;BME280;1937;51.444;6.484;2022-08-19T03:26:47;74008.75;;;18.10;100.00
3844;BME280;1937;51.444;6.484;2022-08-19T03:29:17;73844.06;;;18.01;100.00
3844;BME280;1937;51.444;6.484;2022-08-19T03:31:46;73971.81;;;18.03;100.00
3844;BME280;1937;51.444;6.484;2022-08-19T03:34:16;74129.41;;;18.12;100.00
3844;BME280;1937;51.444;6.484;2022-08-19T03:36:46;74096.88;;;18.09;100.00
3844;BME280;1937;51.444;6.484;2022-08-19T03:39:15;74157.19;;;18.20;100.00
3844;BME280;1937;51.444;6.484;2022-08-19T03:41:46;74207.28;;;18.24;100.00
3844;BME280;1937;51.444;6.484;2022-08-19T03:44:17;74062.66;;;18.17;100.00
3844;BME280;1937;51.444;6.484;2022-08-19T03:46:48;73952.84;;;18.05;100.00
3844;BME280;1937;51.444;6.484;2022-08-19T03:49:20;73829.78;;;17.83;100.00
3844;BME280;1937;51.444;6.484;2022-08-19T03:51:50;73824.13;;;17.93;100.00
3844;BME280;1937;51.444;6.484;2022-08-19T03:54:21;73716.59;;;17.76;100.00
3844;BME280;1937;51.444;6.484;2022-08-19T03:56:52;73933.34;;;17.87;100.00
3844;BME280;1937;51.444;6.484;2022-08-19T03:59:24;74013.13;;;17.98;100.00
3844;BME280;1937;51.444;6.484;2022-08-19T04:01:53;73974.06;;;17.96;100.00
3844;BME280;1937;51.444;6.484;2022-08-19T04:04:24;74028.53;;;18.05;100.00
3844;BME280;1937;51.444;6.484;2022-08-19T04:06:53;73917.19;;;17.99;100.00
3844;BME280;1937;51.444;6.484;2022-08-19T04:09:23;73715.59;;;17.52;100.00
3844;BME280;1937;51.444;6.484;2022-08-19T04:11:54;73923.59;;;17.69;100.00
3844;BME280;1937;51.444;6.484;2022-08-19T04:14:26;74022.38;;;17.79;100.00
3844;BME280;1937;51.444;6.484;2022-08-19T04:16:57;74090.88;;;17.96;100.00
3844;BME280;1937;51.444;6.484;2022-08-19T04:19:28;73781.00;;;17.80;100.00
3844;BME280;1937;51.444;6.484;2022-08-19T04:21:57;73799.69;;;17.70;100.00
3844;BME280;1937;51.444;6.484;2022-08-19T04:24:26;73802.69;;;17.91;100.00
3844;BME280;1937;51.444;6.484;2022-08-19T04:26:54;73415.41;;;17.61;100.00
3844;BME280;1937;51.444;6.484;2022-08-19T04:29:25;73363.31;;;17.58;100.00
3844;BME280;1937;51.444;6.484;2022-08-19T04:31:55;73427.34;;;17.55;100.00
3844;BME280;1937;51.444;6.484;2022-08-19T04:34:26;73522.84;;;17.63;100.00
3844;BME280;1937;51.444;6.484;2022-08-19T04:36:58;73472.78;;;17.61;100.00
3844;BME280;1937;51.444;6.484;2022-08-19T04:39:29;73545.16;;;17.60;100.00
3844;BME280;1937;51.444;6.484;2022-08-19T04:42:13;73775.75;;;17.48;100.00
3844;BME280;1937;51.444;6.484;2022-08-19T04:44:59;73861.81;;;17.48;100.00
3844;BME280;1937;51.444;6.484;2022-08-19T04:47:31;73957.03;;;17.64;100.00
3844;BME280;1937;51.444;6.484;2022-08-19T04:50:00;74144.03;;;17.86;100.00
3844;BME280;1937;51.444;6.484;2022-08-19T04:52:30;74301.59;;;17.95;100.00
3844;BME280;1937;51.444;6.484;2022-08-19T04:54:59;74551.84;;;18.06;100.00
3844;BME280;1937;51.444;6.484;2022-08-19T04:57:28;74746.53;;;18.21;100.00
3844;BME280;1937;51.444;6.484;2022-08-19T04:59:58;74793.50;;;18.23;100.00
3844;BME280;1937;51.444;6.484;2022-08-19T05:02:26;74979.66;;;18.20;100.00
3844;BME280;1937;51.444;6.484;2022-08-19T05:04:59;75113.00;;;18.42;100.00
3844;BME280;1937;51.444;6.484;2022-08-19T05:07:30;74974.56;;;18.40;100.00
3844;BME280;1937;51.444;6.484;2022-08-19T05:09:58;75050.16;;;18.49;100.00
3844;BME280;1937;51.444;6.484;2022-08-19T05:12:27;74999.00;;;18.58;100.00
3844;BME280;1937;51.444;6.484;2022-08-19T05:14:55;74862.75;;;18.47;100.00
3844;BME280;1937;51.444;6.484;2022-08-19T05:17:24;74925.28;;;18.53;100.00
3844;BME280;1937;51.444;6.484;2022-08-19T05:19:54;74878.94;;;18.52;100.00
3844;BME280;1937;51.444;6.484;2022-08-19T05:22:43;75034.09;;;18.65;100.00
3844;BME280;1937;51.444;6.484;2022-08-19T05:25:15;74981.81;;;18.67;100.00
3844;BME280;1937;51.444;6.484;2022-08-19T05:27:46;75092.78;;;18.97;100.00
3844;BME280;1937;51.444;6.484;2022-08-19T05:30:15;74760.69;;;18.99;100.00
3844;BME280;1937;51.444;6.484;2022-08-19T05:32:44;74700.25;;;18.88;100.00
3844;BME280;1937;51.444;6.484;2022-08-19T05:35:13;74601.44;;;18.72;100.00
3844;BME280;1937;51.444;6.484;2022-08-19T05:37:42;74787.06;;;18.68;100.00
3844;BME280;1937;51.444;6.484;2022-08-19T05:40:11;75124.81;;;18.97;100.00
3844;BME280;1937;51.444;6.484;2022-08-19T05:42:40;75129.34;;;18.99;100.00
3844;BME280;1937;51.444;6.484;2022-08-19T05:45:10;75209.31;;;19.18;100.00
3844;BME280;1937;51.444;6.484;2022-08-19T05:47:38;74989.38;;;19.27;100.00
3844;BME280;1937;51.444;6.484;2022-08-19T05:50:07;74939.84;;;19.20;100.00
3844;BME280;1937;51.444;6.484;2022-08-19T05:52:38;75049.84;;;19.41;100.00
3844;BME280;1937;51.444;6.484;2022-08-19T05:55:09;74960.78;;;19.45;100.00
3844;BME280;1937;51.444;6.484;2022-08-19T05:57:38;74771.81;;;19.43;100.00
3844;BME280;1937;51.444;6.484;2022-08-19T06:00:08;74685.03;;;19.57;100.00
3844;BME280;1937;51.444;6.484;2022-08-19T06:02:38;74304.44;;;19.18;100.00
3844;BME280;1937;51.444;6.484;2022-08-19T06:05:09;74445.16;;;19.14;100.00
3844;BME280;1937;51.444;6.484;2022-08-19T06:07:38;74666.06;;;19.15;100.00
3844;BME280;1937;51.444;6.484;2022-08-19T06:10:11;74971.94;;;19.44;100.00
3844;BME280;1937;51.444;6.484;2022-08-19T06:12:39;74982.19;;;19.52;100.00
3844;BME280;1937;51.444;6.484;2022-08-19T06:15:11;74861.47;;;19.64;100.00
3844;BME280;1937;51.444;6.484;2022-08-19T06:17:40;74903.38;;;19.85;100.00
3844;BME280;1937;51.444;6.484;2022-08-19T06:20:13;74763.19;;;20.09;100.00
3844;BME280;1937;51.444;6.484;2022-08-19T06:22:47;74349.72;;;20.00;100.00
3844;BME280;1937;51.444;6.484;2022-08-19T06:25:18;74181.84;;;19.92;100.00
3844;BME280;1937;51.444;6.484;2022-08-19T06:27:47;74389.47;;;20.05;100.00
3844;BME280;1937;51.444;6.484;2022-08-19T06:30:16;74548.97;;;20.49;100.00
3844;BME280;1937;51.444;6.484;2022-08-19T06:32:44;74207.75;;;20.46;100.00
3844;BME280;1937;51.444;6.484;2022-08-19T06:35:13;73997.94;;;20.50;100.00
3844;BME280;1937;51.444;6.484;2022-08-19T06:37:41;73940.69;;;20.69;99.85
3844;BME280;1937;51.444;6.484;2022-08-19T06:40:12;73951.88;;;20.82;99.37
3844;BME280;1937;51.444;6.484;2022-08-19T06:42:42;73902.81;;;20.94;99.43
3844;BME280;1937;51.444;6.484;2022-08-19T06:45:11;73755.03;;;20.87;99.51
3844;BME280;1937;51.444;6.484;2022-08-19T06:47:40;73722.22;;;21.13;98.00
3844;BME280;1937;51.444;6.484;2022-08-19T06:50:10;73454.69;;;21.02;98.54
3844;BME280;1937;51.444;6.484;2022-08-19T06:52:39;73583.56;;;21.07;98.86
3844;BME280;1937;51.444;6.484;2022-08-19T06:55:08;73502.09;;;20.98;98.54
3844;BME280;1937;51.444;6.484;2022-08-19T06:57:37;73516.63;;;21.08;98.46
3844;BME280;1937;51.444;6.484;2022-08-19T07:00:09;73454.34;;;21.08;98.70
3844;BME280;1937;51.444;6.484;2022-08-19T07:02:41;73515.16;;;21.11;99.20
3844;BME280;1937;51.444;6.484;2022-08-19T07:05:10;73552.03;;;21.32;97.41
3844;BME280;1937;51.444;6.484;2022-08-19T07:07:39;73385.97;;;21.23;97.65
3844;BME280;1937;51.444;6.484;2022-08-19T07:10:11;73348.66;;;21.33;97.07
3844;BME280;1937;51.444;6.484;2022-08-19T07:12:39;73347.16;;;21.36;97.32
3844;BME280;1937;51.444;6.484;2022-08-19T07:15:11;73377.56;;;21.54;96.41
3844;BME280;1937;51.444;6.484;2022-08-19T07:17:39;73264.22;;;21.41;97.77
3844;BME280;1937;51.444;6.484;2022-08-19T07:20:12;73607.38;;;21.98;95.62
3844;BME280;1937;51.444;6.484;2022-08-19T07:22:42;73395.22;;;22.32;94.03
3844;BME280;1937;51.444;6.484;2022-08-19T07:25:12;73210.06;;;22.21;94.59
3844;BME280;1937;51.444;6.484;2022-08-19T07:27:41;73155.72;;;22.09;94.83
3844;BME280;1937;51.444;6.484;2022-08-19T07:30:14;73062.56;;;22.27;93.36
3844;BME280;1937;51.444;6.484;2022-08-19T07:32:44;72988.25;;;22.28;93.37
3844;BME280;1937;51.444;6.484;2022-08-19T07:35:12;72885.69;;;22.11;94.04
3844;BME280;1937;51.444;6.484;2022-08-19T07:37:40;72943.25;;;22.04;95.39
3844;BME280;1937;51.444;6.484;2022-08-19T07:40:12;73077.16;;;22.34;93.42
3844;BME280;1937;51.444;6.484;2022-08-19T07:42:41;72841.88;;;22.46;92.86
3844;BME280;1937;51.444;6.484;2022-08-19T07:45:10;72819.31;;;22.77;91.58
3844;BME280;1937;51.444;6.484;2022-08-19T07:47:38;72621.97;;;22.62;91.50
3844;BME280;1937;51.444;6.484;2022-08-19T07:50:10;72598.47;;;22.60;92.06
3844;BME280;1937;51.444;6.484;2022-08-19T07:52:40;72477.59;;;22.60;90.74
3844;BME280;1937;51.444;6.484;2022-08-19T07:55:12;72383.91;;;22.73;89.46
3844;BME280;1937;51.444;6.484;2022-08-19T07:57:40;72429.72;;;23.17;87.73
3844;BME280;1937;51.444;6.484;2022-08-19T08:00:10;72419.44;;;23.80;85.37
3844;BME280;1937;51.444;6.484;2022-08-19T08:02:40;72384.78;;;24.01;85.81
3844;BME280;1937;51.444;6.484;2022-08-19T08:05:09;72266.16;;;24.34;83.10
3844;BME280;1937;51.444;6.484;2022-08-19T08:07:55;72080.16;;;24.59;81.17
3844;BME280;1937;51.444;6.484;2022-08-19T08:10:42;71841.56;;;24.16;82.21
3844;BME280;1937;51.444;6.484;2022-08-19T08:13:11;71927.78;;;24.68;80.69
3844;BME280;1937;51.444;6.484;2022-08-19T08:15:41;71813.53;;;24.56;80.70
3844;BME280;1937;51.444;6.484;2022-08-19T08:18:13;71830.47;;;24.72;80.14
3844;BME280;1937;51.444;6.484;2022-08-19T08:20:44;71702.91;;;24.69;79.46
3844;BME280;1937;51.444;6.484;2022-08-19T08:23:12;71776.34;;;25.08;78.05
3844;BME280;1937;51.444;6.484;2022-08-19T08:25:54;71828.03;;;25.40;77.55
3844;BME280;1937;51.444;6.484;2022-08-19T08:28:23;72039.59;;;25.99;76.64
3844;BME280;1937;51.444;6.484;2022-08-19T08:30:52;71723.16;;;25.67;74.38
3844;BME280;1937;51.444;6.484;2022-08-19T08:33:24;71496.34;;;25.19;76.18
3844;BME280;1937;51.444;6.484;2022-08-19T08:35:53;71598.06;;;25.57;75.34
3844;BME280;1937;51.444;6.484;2022-08-19T08:38:21;71646.81;;;25.85;74.08
3844;BME280;1937;51.444;6.484;2022-08-19T08:40:53;71625.91;;;25.96;73.86
3844;BME280;1937;51.444;6.484;2022-08-19T08:43:29;71511.53;;;25.84;72.98
3844;BME280;1937;51.444;6.484;2022-08-19T08:46:03;71175.00;;;25.08;74.02
3844;BME280;1937;51.444;6.484;2022-08-19T08:48:39;71270.91;;;25.18;74.68
3844;BME280;1937;51.444;6.484;2022-08-19T08:51:12;71322.97;;;25.44;74.50
3844;BME280;1937;51.444;6.484;2022-08-19T08:53:44;71277.72;;;25.35;75.28
3844;BME280;1937;51.444;6.484;2022-08-19T08:56:14;71232.50;;;25.32;74.16
3844;BME280;1937;51.444;6.484;2022-08-19T08:58:51;71316.22;;;25.51;73.17
3844;BME280;1937;51.444;6.484;2022-08-19T09:01:22;71608.78;;;26.34;70.97
3844;BME280;1937;51.444;6.484;2022-08-19T09:03:52;71620.09;;;26.85;67.80
3844;BME280;1937;51.444;6.484;2022-08-19T09:06:28;71443.03;;;26.53;68.86
3844;BME280;1937;51.444;6.484;2022-08-19T09:09:04;71688.59;;;27.20;66.76
3844;BME280;1937;51.444;6.484;2022-08-19T09:11:41;71500.44;;;26.92;66.89
3844;BME280;1937;51.444;6.484;2022-08-19T09:14:26;71548.44;;;26.87;67.04
3844;BME280;1937;51.444;6.484;2022-08-19T09:16:59;71608.34;;;27.22;66.63
3844;BME280;1937;51.444;6.484;2022-08-19T09:19:32;71448.97;;;26.91;66.12
3844;BME280;1937;51.444;6.484;2022-08-19T09:22:02;71612.16;;;27.43;65.30
3844;BME280;1937;51.444;6.484;2022-08-19T09:24:30;71469.44;;;27.34;63.64
3844;BME280;1937;51.444;6.484;2022-08-19T09:26:58;71413.97;;;27.21;64.17
3844;BME280;1937;51.444;6.484;2022-08-19T09:29:27;71273.53;;;26.68;66.87
3844;BME280;1937;51.444;6.484;2022-08-19T09:31:57;71558.63;;;27.36;66.16
3844;BME280;1937;51.444;6.484;2022-08-19T09:34:25;71589.28;;;27.59;64.32
3844;BME280;1937;51.444;6.484;2022-08-19T09:36:58;71452.22;;;27.22;64.65
3844;BME280;1937;51.444;6.484;2022-08-19T09:39:27;71595.13;;;27.66;62.95
3844;BME280;1937;51.444;6.484;2022-08-19T09:41:55;71602.53;;;27.90;61.60
3844;BME280;1937;51.444;6.484;2022-08-19T09:44:24;71565.41;;;27.96;60.63
3844;BME280;1937;51.444;6.484;2022-08-19T09:46:52;71501.34;;;27.76;61.37
3844;BME280;1937;51.444;6.484;2022-08-19T09:49:21;71503.06;;;27.66;63.35
3844;BME280;1937;51.444;6.484;2022-08-19T09:51:51;71514.16;;;27.80;61.82
3844;BME280;1937;51.444;6.484;2022-08-19T09:54:25;71748.06;;;28.36;60.87
3844;BME280;1937;51.444;6.484;2022-08-19T09:56:54;71784.50;;;28.55;60.15
3844;BME280;1937;51.444;6.484;2022-08-19T09:59:23;71888.84;;;28.84;59.01
3844;BME280;1937;51.444;6.484;2022-08-19T10:01:51;71855.97;;;28.88;58.97
3844;BME280;1937;51.444;6.484;2022-08-19T10:04:20;71751.22;;;28.56;58.39
3844;BME280;1937;51.444;6.484;2022-08-19T10:06:50;71751.38;;;28.67;58.72
3844;BME280;1937;51.444;6.484;2022-08-19T10:09:19;71721.78;;;28.65;57.49
3844;BME280;1937;51.444;6.484;2022-08-19T10:11:50;71811.25;;;28.90;57.38
3844;BME280;1937;51.444;6.484;2022-08-19T10:14:18;71934.00;;;29.22;56.83
3844;BME280;1937;51.444;6.484;2022-08-19T10:16:50;71697.88;;;28.71;57.24
3844;BME280;1937;51.444;6.484;2022-08-19T10:19:18;72034.19;;;29.54;56.44
3844;BME280;1937;51.444;6.484;2022-08-19T10:21:48;71795.28;;;28.97;59.82
3844;BME280;1937;51.444;6.484;2022-08-19T10:24:16;71829.53;;;29.06;59.28
3844;BME280;1937;51.444;6.484;2022-08-19T10:26:44;71773.44;;;28.97;58.12
3844;BME280;1937;51.444;6.484;2022-08-19T10:29:16;71869.63;;;29.28;56.17
3844;BME280;1937;51.444;6.484;2022-08-19T10:31:44;71784.44;;;28.99;57.88
3844;BME280;1937;51.444;6.484;2022-08-19T10:34:15;71875.53;;;29.35;56.32
3844;BME280;1937;51.444;6.484;2022-08-19T10:36:44;71649.06;;;28.75;57.88
3844;BME280;1937;51.444;6.484;2022-08-19T10:39:15;71794.88;;;29.25;56.17
3844;BME280;1937;51.444;6.484;2022-08-19T10:41:43;71771.91;;;29.11;56.87
3844;BME280;1937;51.444;6.484;2022-08-19T10:44:12;72026.75;;;29.75;55.06
3844;BME280;1937;51.444;6.484;2022-08-19T10:46:44;71937.38;;;29.47;56.67
3844;BME280;1937;51.444;6.484;2022-08-19T10:49:14;71783.41;;;29.34;54.74
3844;BME280;1937;51.444;6.484;2022-08-19T10:51:43;71818.91;;;29.43;54.21
3844;BME280;1937;51.444;6.484;2022-08-19T10:54:29;71702.63;;;29.19;54.73
3844;BME280;1937;51.444;6.484;2022-08-19T10:57:11;71745.56;;;29.40;53.41
3844;BME280;1937;51.444;6.484;2022-08-19T10:59:40;71533.13;;;28.80;55.55
3844;BME280;1937;51.444;6.484;2022-08-19T11:02:11;71453.19;;;28.53;55.57
3844;BME280;1937;51.444;6.484;2022-08-19T11:04:40;71220.72;;;27.98;57.72
3844;BME280;1937;51.444;6.484;2022-08-19T11:07:10;71129.72;;;27.78;57.38
3844;BME280;1937;51.444;6.484;2022-08-19T11:09:41;71317.88;;;28.24;57.06
3844;BME280;1937;51.444;6.484;2022-08-19T11:12:10;71564.38;;;28.97;55.02
3844;BME280;1937;51.444;6.484;2022-08-19T11:14:39;71649.38;;;29.15;54.31
3844;BME280;1937;51.444;6.484;2022-08-19T11:17:09;71446.19;;;28.80;54.73
3844;BME280;1937;51.444;6.484;2022-08-19T11:19:40;71374.84;;;28.54;55.02
3844;BME280;1937;51.444;6.484;2022-08-19T11:22:10;71237.63;;;28.19;55.54
3844;BME280;1937;51.444;6.484;2022-08-19T11:24:38;71083.44;;;27.65;56.88
3844;BME280;1937;51.444;6.484;2022-08-19T11:27:09;70932.75;;;27.35;57.50
3844;BME280;1937;51.444;6.484;2022-08-19T11:29:40;71294.69;;;28.36;54.32
3844;BME280;1937;51.444;6.484;2022-08-19T11:32:12;71525.41;;;28.96;52.85
3844;BME280;1937;51.444;6.484;2022-08-19T11:34:40;71276.66;;;28.43;55.13
3844;BME280;1937;51.444;6.484;2022-08-19T11:37:09;71665.06;;;29.41;52.72
3844;BME280;1937;51.444;6.484;2022-08-19T11:39:38;71786.56;;;29.71;50.32
3844;BME280;1937;51.444;6.484;2022-08-19T11:42:07;71731.28;;;29.61;51.70
3844;BME280;1937;51.444;6.484;2022-08-19T11:44:49;71992.88;;;30.30;50.40
3844;BME280;1937;51.444;6.484;2022-08-19T11:47:20;72013.63;;;30.47;49.57
3844;BME280;1937;51.444;6.484;2022-08-19T11:49:48;72093.50;;;30.78;48.25
3844;BME280;1937;51.444;6.484;2022-08-19T11:52:17;71814.19;;;30.17;49.16
3844;BME280;1937;51.444;6.484;2022-08-19T11:54:45;71712.81;;;29.90;48.53
3844;BME280;1937;51.444;6.484;2022-08-19T11:57:13;71871.09;;;30.37;47.76
3844;BME280;1937;51.444;6.484;2022-08-19T11:59:47;71638.72;;;29.99;46.06
3844;BME280;1937;51.444;6.484;2022-08-19T12:02:15;71820.56;;;30.37;47.02
3844;BME280;1937;51.444;6.484;2022-08-19T12:04:45;71536.53;;;29.62;48.31
3844;BME280;1937;51.444;6.484;2022-08-19T12:07:14;71333.47;;;29.15;50.10
3844;BME280;1937;51.444;6.484;2022-08-19T12:09:42;71076.47;;;28.37;52.33
3844;BME280;1937;51.444;6.484;2022-08-19T12:12:12;71344.03;;;29.04;50.79
3844;BME280;1937;51.444;6.484;2022-08-19T12:14:40;71269.81;;;28.97;50.87
3844;BME280;1937;51.444;6.484;2022-08-19T12:17:08;71327.97;;;28.99;51.71
3844;BME280;1937;51.444;6.484;2022-08-19T12:19:38;71299.84;;;28.96;49.95
3844;BME280;1937;51.444;6.484;2022-08-19T12:22:08;71459.66;;;29.49;48.82
3844;BME280;1937;51.444;6.484;2022-08-19T12:24:36;71739.91;;;30.21;48.60
3844;BME280;1937;51.444;6.484;2022-08-19T12:27:05;71695.06;;;30.06;47.76
3844;BME280;1937;51.444;6.484;2022-08-19T12:29:34;71807.72;;;30.33;49.08
3844;BME280;1937;51.444;6.484;2022-08-19T12:32:04;71710.41;;;30.05;48.62
3844;BME280;1937;51.444;6.484;2022-08-19T12:34:34;71587.00;;;29.80;48.60
3844;BME280;1937;51.444;6.484;2022-08-19T12:37:05;71698.34;;;30.24;48.06
3844;BME280;1937;51.444;6.484;2022-08-19T12:39:36;71826.03;;;30.42;47.06
3844;BME280;1937;51.444;6.484;2022-08-19T12:42:07;71851.53;;;30.52;47.84
3844;BME280;1937;51.444;6.484;2022-08-19T12:44:37;71899.47;;;30.70;46.18
3844;BME280;1937;51.444;6.484;2022-08-19T12:47:07;71562.69;;;29.95;47.75
3844;BME280;1937;51.444;6.484;2022-08-19T12:49:38;71860.44;;;30.62;46.69
3844;BME280;1937;51.444;6.484;2022-08-19T12:52:07;71558.00;;;29.96;47.25
3844;BME280;1937;51.444;6.484;2022-08-19T12:54:38;71536.25;;;29.82;47.56
3844;BME280;1937;51.444;6.484;2022-08-19T12:57:07;71676.78;;;30.15;49.31
3844;BME280;1937;51.444;6.484;2022-08-19T12:59:37;71700.25;;;30.19;48.95
3844;BME280;1937;51.444;6.484;2022-08-19T13:02:07;71816.50;;;30.56;47.01
3844;BME280;1937;51.444;6.484;2022-08-19T13:04:36;71553.16;;;29.92;47.44
3844;BME280;1937;51.444;6.484;2022-08-19T13:07:07;71406.06;;;29.53;49.63
3844;BME280;1937;51.444;6.484;2022-08-19T13:09:38;71453.94;;;29.64;48.79
3844;BME280;1937;51.444;6.484;2022-08-19T13:12:09;71661.81;;;30.18;48.22
3844;BME280;1937;51.444;6.484;2022-08-19T13:14:41;71909.13;;;30.67;48.40
3844;BME280;1937;51.444;6.484;2022-08-19T13:17:13;71782.41;;;30.45;48.03
3844;BME280;1937;51.444;6.484;2022-08-19T13:19:48;71892.47;;;30.73;48.41
3844;BME280;1937;51.444;6.484;2022-08-19T13:22:17;71925.63;;;30.74;48.01
3844;BME280;1937;51.444;6.484;2022-08-19T13:24:47;71769.56;;;30.41;49.61
3844;BME280;1937;51.444;6.484;2022-08-19T13:27:15;71611.75;;;29.96;50.87
3844;BME280;1937;51.444;6.484;2022-08-19T13:29:43;71576.66;;;29.89;50.28
3844;BME280;1937;51.444;6.484;2022-08-19T13:32:30;71603.78;;;29.96;49.64
3844;BME280;1937;51.444;6.484;2022-08-19T13:35:16;71476.72;;;29.57;51.67